createdAt,value
2017-10-09T00:00:40.165Z,89.84
2017-10-09T00:01:40.166Z,89.65
2017-10-09T00:02:40.166Z,88.89
2017-10-09T00:03:40.167Z,88.23
2017-10-09T00:04:40.167Z,87.94
2017-10-09T00:05:40.468Z,88.04
2017-10-09T00:06:40.167Z,87.75
2017-10-09T00:07:40.166Z,88.04
2017-10-09T00:08:40.166Z,86.99
2017-10-09T00:09:40.167Z,87.08
2017-10-09T00:10:40.168Z,87.94
2017-10-09T00:11:40.166Z,87.94
2017-10-09T00:12:40.167Z,87.75
2017-10-09T00:13:40.167Z,87.94
2017-10-09T00:14:40.169Z,88.32
2017-10-09T00:15:40.166Z,87.85
2017-10-09T00:16:40.167Z,88.42
2017-10-09T00:17:40.167Z,88.89
2017-10-09T00:18:40.168Z,88.51
2017-10-09T00:19:40.168Z,88.42
2017-10-09T00:20:40.167Z,88.13
2017-10-09T00:21:40.167Z,88.51
2017-10-09T00:22:40.168Z,89.08
2017-10-09T00:23:40.167Z,89.27
2017-10-09T00:24:40.168Z,89.84
2017-10-09T00:25:40.174Z,90.08
2017-10-09T00:26:40.169Z,90.28
2017-10-09T00:27:40.168Z,90.75
2017-10-09T00:28:40.169Z,90.66
2017-10-09T00:29:40.169Z,89.80
2017-10-09T00:30:40.170Z,89.51
2017-10-09T00:31:40.169Z,89.89
2017-10-09T00:32:40.169Z,89.80
2017-10-09T00:33:40.170Z,90.37
2017-10-09T00:34:40.169Z,89.99
2017-10-09T00:35:40.168Z,89.61
2017-10-09T00:36:40.169Z,88.75
2017-10-09T00:37:40.169Z,88.94
2017-10-09T00:38:40.170Z,89.23
2017-10-09T00:39:40.169Z,88.94
2017-10-09T00:40:40.169Z,88.94
2017-10-09T00:41:40.170Z,89.61
2017-10-09T00:42:40.170Z,89.42
2017-10-09T00:43:40.168Z,89.32
2017-10-09T00:44:40.169Z,89.80
2017-10-09T00:45:40.169Z,89.61
2017-10-09T00:46:40.170Z,90.28
2017-10-09T00:47:40.168Z,90.47
2017-10-09T00:48:40.168Z,90.18
2017-10-09T00:49:40.168Z,89.42
2017-10-09T00:50:40.169Z,89.23
2017-10-09T00:51:40.167Z,88.46
2017-10-09T00:52:40.169Z,89.23
2017-10-09T00:53:40.169Z,88.85
2017-10-09T00:54:40.168Z,88.09
2017-10-09T00:55:40.168Z,87.99
2017-10-09T00:56:40.169Z,89.04
2017-10-09T00:57:40.168Z,88.94
2017-10-09T00:58:40.170Z,88.46
2017-10-09T00:59:40.167Z,88.66
2017-10-09T01:00:40.168Z,88.37
2017-10-09T01:01:40.169Z,88.28
2017-10-09T01:02:40.168Z,88.85
2017-10-09T01:03:40.167Z,88.75
2017-10-09T01:04:40.170Z,88.56
2017-10-09T01:05:40.169Z,88.37
2017-10-09T01:06:40.168Z,88.56
2017-10-09T01:07:40.167Z,88.37
2017-10-09T01:08:40.166Z,89.04
2017-10-09T01:09:40.167Z,89.14
2017-10-09T01:10:40.167Z,89.42
2017-10-09T01:11:40.167Z,89.23
2017-10-09T01:12:40.168Z,88.56
2017-10-09T01:13:40.167Z,89.42
2017-10-09T01:14:40.168Z,89.32
2017-10-09T01:15:40.166Z,88.37
2017-10-09T01:16:40.167Z,88.09
2017-10-09T01:17:40.166Z,87.80
2017-10-09T01:18:40.168Z,87.90
2017-10-09T01:19:40.165Z,87.52
2017-10-09T01:20:40.166Z,87.85
2017-10-09T01:21:40.168Z,87.80
2017-10-09T01:22:40.167Z,87.13
2017-10-09T01:23:40.168Z,87.90
2017-10-09T01:24:40.166Z,87.71
2017-10-09T01:25:40.166Z,88.09
2017-10-09T01:26:40.166Z,87.61
2017-10-09T01:27:40.166Z,88.09
2017-10-09T01:28:40.166Z,87.52
2017-10-09T01:29:40.165Z,87.42
2017-10-09T01:30:40.166Z,87.27
2017-10-09T01:31:40.166Z,87.42
2017-10-09T01:32:40.165Z,87.32
2017-10-09T01:33:40.166Z,87.71
2017-10-09T01:34:40.167Z,87.32
2017-10-09T01:35:40.165Z,86.94
2017-10-09T01:36:40.166Z,87.23
2017-10-09T01:37:40.165Z,87.52
2017-10-09T01:38:40.166Z,88.09
2017-10-09T01:39:40.165Z,87.90
2017-10-09T01:40:40.164Z,88.18
2017-10-09T01:41:40.165Z,87.90
2017-10-09T01:42:40.165Z,88.09
2017-10-09T01:43:40.165Z,87.42
2017-10-09T01:44:40.165Z,87.80
2017-10-09T01:45:40.166Z,87.13
2017-10-09T01:46:40.165Z,87.23
2017-10-09T01:47:40.163Z,87.71
2017-10-09T01:48:40.165Z,88.18
2017-10-09T01:49:40.167Z,87.90
2017-10-09T01:50:40.172Z,89.04
2017-10-09T01:51:40.165Z,89.23
2017-10-09T01:52:40.168Z,89.51
2017-10-09T01:53:40.195Z,89.32
2017-10-09T01:54:40.164Z,89.32
2017-10-09T01:55:40.163Z,89.23
2017-10-09T01:56:40.164Z,89.80
2017-10-09T01:57:40.164Z,89.14
2017-10-09T01:58:40.163Z,89.42
2017-10-09T01:59:40.163Z,89.32
2017-10-09T02:00:40.162Z,89.23
2017-10-09T02:01:40.164Z,89.70
2017-10-09T02:02:40.163Z,89.80
2017-10-09T02:03:40.162Z,89.99
2017-10-09T02:04:40.162Z,89.80
2017-10-09T02:05:40.164Z,89.99
2017-10-09T02:06:40.163Z,90.28
2017-10-09T02:07:40.162Z,90.66
2017-10-09T02:08:40.160Z,90.66
2017-10-09T02:09:40.160Z,90.37
2017-10-09T02:10:40.160Z,90.66
2017-10-09T02:11:40.161Z,90.18
2017-10-09T02:12:40.186Z,89.99
2017-10-09T02:13:40.160Z,89.99
2017-10-09T02:14:40.162Z,89.99
2017-10-09T02:15:40.158Z,90.18
2017-10-09T02:16:40.160Z,90.28
2017-10-09T02:17:40.158Z,89.99
2017-10-09T02:18:40.158Z,90.37
2017-10-09T02:19:40.159Z,89.70
2017-10-09T02:20:40.156Z,89.51
2017-10-09T02:21:40.158Z,89.32
2017-10-09T02:22:40.157Z,89.51
2017-10-09T02:23:40.156Z,89.51
2017-10-09T02:24:40.157Z,89.23
2017-10-09T02:25:40.157Z,89.42
2017-10-09T02:26:40.155Z,89.32
2017-10-09T02:27:40.155Z,89.04
2017-10-09T02:28:40.155Z,89.70
2017-10-09T02:29:40.156Z,89.70
2017-10-09T02:30:40.155Z,89.61
2017-10-09T02:31:40.155Z,90.08
2017-10-09T02:32:40.155Z,90.94
2017-10-09T02:33:40.154Z,90.94
2017-10-09T02:34:40.154Z,90.52
2017-10-09T02:35:40.153Z,90.56
2017-10-09T02:36:40.152Z,90.14
2017-10-09T02:37:40.153Z,90.08
2017-10-09T02:38:40.154Z,89.89
2017-10-09T02:39:40.151Z,89.80
2017-10-09T02:40:40.151Z,90.47
2017-10-09T02:41:40.151Z,90.84
2017-10-09T02:42:40.151Z,90.75
2017-10-09T02:43:40.149Z,90.52
2017-10-09T02:44:40.150Z,89.89
2017-10-09T02:45:40.150Z,90.66
2017-10-09T02:46:40.152Z,90.28
2017-10-09T02:47:40.148Z,90.23
2017-10-09T02:48:40.149Z,90.52
2017-10-09T02:49:40.147Z,90.70
2017-10-09T02:50:40.147Z,90.52
2017-10-09T02:51:40.148Z,90.33
2017-10-09T02:52:40.147Z,90.80
2017-10-09T02:53:40.146Z,91.37
2017-10-09T02:54:40.147Z,90.70
2017-10-09T02:55:40.147Z,90.70
2017-10-09T02:56:40.146Z,90.70
2017-10-09T02:57:40.146Z,90.89
2017-10-09T02:58:40.144Z,90.89
2017-10-09T02:59:40.144Z,91.18
2017-10-09T03:00:40.143Z,91.37
2017-10-09T03:01:40.142Z,91.47
2017-10-09T03:02:40.142Z,90.42
2017-10-09T03:03:40.140Z,91.28
2017-10-09T03:04:40.140Z,91.08
2017-10-09T03:05:40.141Z,90.14
2017-10-09T03:06:40.141Z,90.52
2017-10-09T03:07:40.140Z,90.80
2017-10-09T03:08:40.139Z,91.08
2017-10-09T03:09:40.140Z,90.89
2017-10-09T03:10:40.138Z,91.22
2017-10-09T03:11:40.137Z,90.52
2017-10-09T03:12:40.138Z,91.03
2017-10-09T03:13:40.136Z,90.56
2017-10-09T03:14:40.136Z,91.42
2017-10-09T03:15:40.136Z,91.22
2017-10-09T03:16:40.135Z,91.13
2017-10-09T03:17:40.135Z,90.56
2017-10-09T03:18:40.134Z,90.52
2017-10-09T03:19:40.133Z,91.13
2017-10-09T03:20:40.133Z,90.94
2017-10-09T03:21:40.133Z,91.37
2017-10-09T03:22:40.133Z,91.37
2017-10-09T03:23:40.131Z,90.99
2017-10-09T03:24:40.132Z,91.47
2017-10-09T03:25:40.130Z,91.18
2017-10-09T03:26:40.132Z,91.56
2017-10-09T03:27:40.130Z,91.37
2017-10-09T03:28:40.130Z,91.08
2017-10-09T03:29:40.131Z,91.37
2017-10-09T03:30:40.132Z,91.94
2017-10-09T03:31:40.129Z,91.94
2017-10-09T03:32:40.129Z,91.94
2017-10-09T03:33:40.126Z,92.13
2017-10-09T03:34:40.127Z,92.61
2017-10-09T03:35:40.129Z,92.61
2017-10-09T03:36:40.126Z,92.61
2017-10-09T03:37:40.124Z,91.94
2017-10-09T03:38:40.125Z,91.94
2017-10-09T03:39:40.125Z,91.75
2017-10-09T03:40:40.123Z,92.70
2017-10-09T03:41:40.123Z,92.61
2017-10-09T03:42:40.122Z,93.08
2017-10-09T03:43:40.120Z,92.61
2017-10-09T03:44:40.121Z,92.51
2017-10-09T03:45:40.119Z,92.41
2017-10-09T03:46:40.119Z,92.03
2017-10-09T03:47:40.119Z,91.28
2017-10-09T03:48:40.118Z,91.32
2017-10-09T03:49:40.117Z,91.37
2017-10-09T03:50:40.116Z,90.75
2017-10-09T03:51:40.116Z,90.84
2017-10-09T03:52:40.115Z,91.51
2017-10-09T03:53:40.115Z,90.94
2017-10-09T03:54:40.114Z,90.61
2017-10-09T03:55:40.113Z,90.75
2017-10-09T03:56:40.113Z,91.32
2017-10-09T03:57:40.114Z,90.75
2017-10-09T03:58:40.112Z,90.23
2017-10-09T03:59:40.112Z,89.51
2017-10-09T04:00:40.113Z,89.70
2017-10-09T04:01:40.111Z,90.28
2017-10-09T04:02:40.112Z,89.99
2017-10-09T04:03:40.109Z,90.18
2017-10-09T04:04:40.110Z,89.89
2017-10-09T04:05:40.108Z,89.80
2017-10-09T04:06:40.112Z,89.14
2017-10-09T04:07:40.110Z,89.70
2017-10-09T04:08:40.108Z,89.94
2017-10-09T04:09:40.108Z,90.56
2017-10-09T04:10:40.107Z,90.56
2017-10-09T04:11:40.106Z,90.75
2017-10-09T04:12:40.106Z,90.18
2017-10-09T04:13:40.106Z,89.99
2017-10-09T04:14:40.109Z,89.61
2017-10-09T04:15:40.105Z,89.42
2017-10-09T04:16:40.105Z,89.61
2017-10-09T04:17:40.105Z,90.37
2017-10-09T04:18:40.105Z,89.51
2017-10-09T04:19:40.103Z,90.28
2017-10-09T04:20:40.105Z,89.99
2017-10-09T04:21:40.102Z,89.23
2017-10-09T04:22:40.104Z,89.70
2017-10-09T04:23:40.100Z,89.51
2017-10-09T04:24:40.101Z,89.32
2017-10-09T04:25:40.099Z,88.56
2017-10-09T04:26:40.102Z,88.46
2017-10-09T04:27:40.100Z,89.04
2017-10-09T04:28:40.105Z,89.42
2017-10-09T04:29:40.099Z,89.04
2017-10-09T04:30:40.099Z,88.94
2017-10-09T04:31:40.101Z,88.37
2017-10-09T04:32:40.098Z,88.56
2017-10-09T04:33:40.097Z,88.28
2017-10-09T04:34:40.096Z,88.75
2017-10-09T04:35:40.095Z,88.28
2017-10-09T04:36:40.095Z,88.37
2017-10-09T04:37:40.095Z,88.09
2017-10-09T04:38:40.097Z,88.85
2017-10-09T04:39:40.095Z,89.23
2017-10-09T04:40:40.095Z,88.94
2017-10-09T04:41:40.094Z,88.94
2017-10-09T04:42:40.098Z,88.94
2017-10-09T04:43:40.093Z,89.32
2017-10-09T04:44:40.092Z,89.32
2017-10-09T04:45:40.093Z,88.66
2017-10-09T04:46:40.092Z,88.75
2017-10-09T04:47:40.092Z,88.56
2017-10-09T04:48:40.090Z,89.23
2017-10-09T04:49:40.093Z,89.56
2017-10-09T04:50:40.090Z,90.33
2017-10-09T04:51:40.089Z,90.14
2017-10-09T04:52:40.090Z,89.56
2017-10-09T04:53:40.090Z,90.23
2017-10-09T04:54:40.088Z,89.61
2017-10-09T04:55:40.089Z,89.70
2017-10-09T04:56:40.088Z,90.14
2017-10-09T04:57:40.088Z,90.04
2017-10-09T04:58:40.089Z,89.28
2017-10-09T04:59:40.087Z,89.61
2017-10-09T05:00:40.086Z,89.04
2017-10-09T05:01:40.087Z,89.61
2017-10-09T05:02:40.091Z,89.94
2017-10-09T05:03:40.085Z,90.37
2017-10-09T05:04:40.084Z,89.51
2017-10-09T05:05:40.085Z,89.70
2017-10-09T05:06:40.084Z,90.37
2017-10-09T05:07:40.085Z,89.61
2017-10-09T05:08:40.083Z,89.70
2017-10-09T05:09:40.082Z,89.37
2017-10-09T05:10:40.083Z,89.94
2017-10-09T05:11:40.081Z,89.99
2017-10-09T05:12:40.080Z,89.80
2017-10-09T05:13:40.081Z,89.75
2017-10-09T05:14:40.081Z,89.61
2017-10-09T05:15:40.078Z,89.23
2017-10-09T05:16:40.078Z,89.51
2017-10-09T05:17:40.080Z,90.08
2017-10-09T05:18:40.079Z,89.66
2017-10-09T05:19:40.079Z,89.23
2017-10-09T05:20:40.077Z,89.04
2017-10-09T05:21:40.078Z,89.61
2017-10-09T05:22:40.078Z,89.32
2017-10-09T05:23:40.076Z,89.61
2017-10-09T05:24:40.076Z,89.23
2017-10-09T05:25:40.077Z,89.32
2017-10-09T05:26:40.096Z,89.75
2017-10-09T05:27:40.074Z,89.23
2017-10-09T05:28:40.074Z,89.00
2017-10-09T05:29:40.072Z,88.75
2017-10-09T05:30:40.074Z,89.80
2017-10-09T05:31:40.074Z,89.32
2017-10-09T05:32:40.073Z,90.18
2017-10-09T05:33:40.071Z,90.28
2017-10-09T05:34:40.071Z,89.89
2017-10-09T05:35:40.069Z,89.89
2017-10-09T05:36:40.069Z,89.23
2017-10-09T05:37:40.070Z,88.94
2017-10-09T05:38:40.069Z,88.37
2017-10-09T05:39:40.068Z,88.56
2017-10-09T05:40:40.069Z,88.37
2017-10-09T05:41:40.068Z,88.37
2017-10-09T05:42:40.069Z,88.28
2017-10-09T05:43:40.067Z,87.99
2017-10-09T05:44:40.066Z,88.18
2017-10-09T05:45:40.071Z,88.18
2017-10-09T05:46:40.070Z,88.18
2017-10-09T05:47:40.065Z,87.71
2017-10-09T05:48:40.065Z,87.71
2017-10-09T05:49:40.064Z,87.71
2017-10-09T05:50:40.064Z,89.23
2017-10-09T05:51:40.065Z,89.51
2017-10-09T05:52:40.066Z,88.37
2017-10-09T05:53:40.063Z,88.37
2017-10-09T05:54:40.062Z,88.18
2017-10-09T05:55:40.061Z,88.46
2017-10-09T05:56:40.062Z,88.75
2017-10-09T05:57:40.061Z,88.56
2017-10-09T05:58:40.061Z,89.32
2017-10-09T05:59:40.059Z,89.14
2017-10-09T06:00:40.060Z,88.18
2017-10-09T06:01:40.059Z,88.09
2017-10-09T06:02:40.063Z,87.99
2017-10-09T06:03:40.058Z,87.99
2017-10-09T06:04:40.059Z,87.90
2017-10-09T06:05:40.058Z,88.18
2017-10-09T06:06:40.059Z,87.61
2017-10-09T06:07:40.058Z,88.37
2017-10-09T06:08:40.056Z,88.66
2017-10-09T06:09:40.056Z,89.04
2017-10-09T06:10:40.057Z,89.89
2017-10-09T06:11:40.056Z,89.61
2017-10-09T06:12:40.057Z,89.70
2017-10-09T06:13:40.055Z,89.70
2017-10-09T06:14:40.055Z,90.33
2017-10-09T06:15:40.053Z,90.04
2017-10-09T06:16:40.053Z,89.99
2017-10-09T06:17:40.053Z,90.33
2017-10-09T06:18:40.053Z,89.94
2017-10-09T06:19:40.052Z,89.99
2017-10-09T06:20:40.052Z,89.99
2017-10-09T06:21:40.052Z,89.56
2017-10-09T06:22:40.052Z,89.70
2017-10-09T06:23:40.050Z,89.42
2017-10-09T06:24:40.050Z,89.51
2017-10-09T06:25:40.049Z,89.32
2017-10-09T06:26:40.050Z,88.94
2017-10-09T06:27:40.049Z,87.99
2017-10-09T06:28:40.049Z,87.04
2017-10-09T06:29:40.049Z,87.32
2017-10-09T06:30:40.049Z,87.04
2017-10-09T06:31:40.047Z,87.04
2017-10-09T06:32:40.048Z,87.32
2017-10-09T06:33:40.048Z,86.38
2017-10-09T06:34:40.046Z,86.38
2017-10-09T06:35:40.046Z,86.09
2017-10-09T06:36:40.047Z,86.09
2017-10-09T06:37:40.047Z,86.28
2017-10-09T06:38:40.046Z,85.94
2017-10-09T06:39:40.045Z,86.47
2017-10-09T06:40:40.045Z,86.38
2017-10-09T06:41:40.046Z,85.99
2017-10-09T06:42:40.045Z,86.13
2017-10-09T06:43:40.044Z,85.47
2017-10-09T06:44:40.046Z,84.89
2017-10-09T06:45:40.044Z,84.80
2017-10-09T06:46:40.044Z,84.61
2017-10-09T06:47:40.044Z,85.47
2017-10-09T06:48:40.043Z,84.61
2017-10-09T06:49:40.044Z,85.37
2017-10-09T06:50:40.050Z,84.89
2017-10-09T06:51:40.043Z,85.66
2017-10-09T06:52:40.044Z,85.37
2017-10-09T06:53:40.047Z,85.75
2017-10-09T06:54:40.042Z,85.28
2017-10-09T06:55:40.045Z,85.08
2017-10-09T06:56:40.045Z,85.56
2017-10-09T06:57:40.042Z,85.47
2017-10-09T06:58:40.043Z,85.18
2017-10-09T06:59:40.042Z,85.28
2017-10-09T07:00:40.042Z,85.94
2017-10-09T07:01:40.043Z,85.94
2017-10-09T07:02:40.042Z,85.94
2017-10-09T07:03:40.046Z,85.66
2017-10-09T07:04:40.043Z,85.18
2017-10-09T07:05:40.042Z,85.28
2017-10-09T07:06:40.044Z,84.23
2017-10-09T07:07:40.043Z,84.42
2017-10-09T07:08:40.043Z,83.94
2017-10-09T07:09:40.044Z,84.04
2017-10-09T07:10:40.045Z,84.52
2017-10-09T07:11:40.045Z,84.61
2017-10-09T07:12:40.044Z,85.56
2017-10-09T07:13:40.043Z,85.94
2017-10-09T07:14:40.045Z,84.61
2017-10-09T07:15:40.043Z,83.28
2017-10-09T07:16:40.043Z,83.47
2017-10-09T07:17:40.046Z,83.28
2017-10-09T07:18:40.045Z,84.42
2017-10-09T07:19:40.044Z,84.89
2017-10-09T07:20:40.044Z,85.37
2017-10-09T07:21:40.044Z,84.52
2017-10-09T07:22:40.048Z,84.42
2017-10-09T07:23:40.045Z,85.32
2017-10-09T07:24:40.047Z,84.84
2017-10-09T07:25:40.047Z,84.84
2017-10-09T07:26:40.046Z,84.75
2017-10-09T07:27:40.047Z,85.32
2017-10-09T07:28:40.047Z,83.94
2017-10-09T07:29:40.047Z,84.17
2017-10-09T07:30:40.051Z,84.65
2017-10-09T07:31:40.047Z,84.56
2017-10-09T07:32:40.049Z,84.36
2017-10-09T07:33:40.049Z,84.36
2017-10-09T07:34:40.048Z,84.46
2017-10-09T07:35:40.047Z,83.61
2017-10-09T07:36:40.050Z,83.61
2017-10-09T07:37:40.048Z,83.70
2017-10-09T07:38:40.051Z,83.13
2017-10-09T07:39:40.049Z,83.61
2017-10-09T07:40:40.050Z,83.61
2017-10-09T07:41:40.051Z,83.22
2017-10-09T07:42:40.051Z,83.70
2017-10-09T07:43:40.052Z,83.41
2017-10-09T07:44:40.054Z,82.84
2017-10-09T07:45:40.053Z,82.75
2017-10-09T07:46:40.053Z,83.22
2017-10-09T07:47:40.053Z,83.13
2017-10-09T07:48:40.054Z,82.65
2017-10-09T07:49:40.054Z,82.60
2017-10-09T07:50:40.055Z,82.21
2017-10-09T07:51:40.056Z,82.79
2017-10-09T07:52:40.056Z,82.69
2017-10-09T07:53:40.056Z,82.03
2017-10-09T07:54:40.058Z,81.74
2017-10-09T07:55:40.062Z,81.84
2017-10-09T07:56:40.062Z,81.55
2017-10-09T07:57:40.058Z,81.17
2017-10-09T07:58:40.061Z,81.74
2017-10-09T07:59:40.061Z,82.12
2017-10-09T08:00:40.084Z,82.21
2017-10-09T08:01:40.063Z,83.65
2017-10-09T08:02:40.062Z,81.84
2017-10-09T08:03:40.063Z,82.03
2017-10-09T08:04:40.065Z,82.69
2017-10-09T08:05:40.064Z,83.07
2017-10-09T08:06:40.068Z,83.26
2017-10-09T08:07:40.070Z,83.65
2017-10-09T08:08:40.068Z,82.89
2017-10-09T08:09:40.076Z,82.31
2017-10-09T08:10:40.071Z,81.65
2017-10-09T08:11:40.071Z,81.36
2017-10-09T08:12:40.071Z,81.17
2017-10-09T08:13:40.073Z,80.69
2017-10-09T08:14:40.074Z,80.92
2017-10-09T08:15:40.074Z,79.97
2017-10-09T08:16:40.096Z,79.88
2017-10-09T08:17:40.077Z,79.97
2017-10-09T08:18:40.079Z,79.49
2017-10-09T08:19:40.078Z,79.49
2017-10-09T08:20:40.079Z,79.53
2017-10-09T08:21:40.080Z,78.10
2017-10-09T08:22:40.083Z,77.53
2017-10-09T08:23:40.083Z,77.25
2017-10-09T08:24:40.084Z,77.72
2017-10-09T08:25:40.085Z,76.57
2017-10-09T08:26:40.087Z,77.15
2017-10-09T08:27:40.088Z,77.82
2017-10-09T08:28:40.089Z,77.72
2017-10-09T08:29:40.091Z,78.10
2017-10-09T08:30:40.094Z,78.10
2017-10-09T08:31:40.093Z,78.30
2017-10-09T08:32:40.096Z,77.67
2017-10-09T08:33:40.097Z,75.85
2017-10-09T08:34:40.100Z,76.62
2017-10-09T08:35:40.101Z,75.09
2017-10-09T08:36:40.104Z,74.90
2017-10-09T08:37:40.106Z,74.10
2017-10-09T08:38:40.109Z,75.15
2017-10-09T08:39:40.118Z,75.24
2017-10-09T08:40:40.112Z,73.75
2017-10-09T08:41:40.113Z,73.75
2017-10-09T08:42:40.116Z,74.23
2017-10-09T08:43:40.117Z,75.28
2017-10-09T08:44:40.120Z,75.18
2017-10-09T08:45:40.121Z,74.90
2017-10-09T08:46:40.125Z,75.95
2017-10-09T08:47:40.125Z,75.85
2017-10-09T08:48:40.128Z,74.71
2017-10-09T08:49:40.132Z,75.28
2017-10-09T08:50:40.133Z,77.19
2017-10-09T08:51:40.134Z,77.19
2017-10-09T08:52:40.138Z,77.47
2017-10-09T08:53:40.140Z,75.85
2017-10-09T08:54:40.144Z,74.80
2017-10-09T08:55:40.144Z,76.20
2017-10-09T08:56:40.148Z,75.34
2017-10-09T08:57:40.149Z,76.39
2017-10-09T08:58:40.153Z,75.91
2017-10-09T08:59:40.154Z,76.01
2017-10-09T09:00:40.155Z,76.57
2017-10-09T09:01:40.159Z,76.39
2017-10-09T09:02:40.161Z,76.48
2017-10-09T09:03:40.194Z,76.20
2017-10-09T09:04:40.165Z,77.44
2017-10-09T09:05:40.166Z,76.67
2017-10-09T09:06:40.168Z,76.04
2017-10-09T09:07:40.170Z,75.09
2017-10-09T09:08:40.174Z,74.19
2017-10-09T09:09:40.174Z,74.86
2017-10-09T09:10:40.179Z,74.19
2017-10-09T09:11:40.179Z,73.62
2017-10-09T09:12:40.182Z,73.52
2017-10-09T09:13:40.184Z,73.62
2017-10-09T09:14:40.187Z,74.38
2017-10-09T09:15:40.188Z,74.38
2017-10-09T09:16:40.190Z,75.24
2017-10-09T09:17:40.191Z,76.01
2017-10-09T09:18:40.194Z,74.86
2017-10-09T09:19:40.195Z,75.43
2017-10-09T09:20:40.197Z,75.05
2017-10-09T09:21:40.200Z,74.38
2017-10-09T09:22:40.200Z,73.52
2017-10-09T09:23:40.203Z,73.08
2017-10-09T09:24:40.204Z,73.85
2017-10-09T09:25:40.206Z,73.75
2017-10-09T09:26:40.209Z,73.47
2017-10-09T09:27:40.211Z,73.37
2017-10-09T09:28:40.212Z,72.99
2017-10-09T09:29:40.216Z,73.18
2017-10-09T09:30:40.217Z,73.75
2017-10-09T09:31:40.218Z,73.47
2017-10-09T09:32:40.220Z,72.61
2017-10-09T09:33:40.223Z,72.83
2017-10-09T09:34:40.229Z,72.83
2017-10-09T09:35:40.226Z,73.22
2017-10-09T09:36:40.230Z,71.59
2017-10-09T09:37:40.233Z,71.21
2017-10-09T09:38:40.235Z,70.83
2017-10-09T09:39:40.237Z,71.02
2017-10-09T09:40:40.238Z,69.78
2017-10-09T09:41:40.240Z,69.59
2017-10-09T09:42:40.244Z,71.50
2017-10-09T09:43:40.245Z,70.58
2017-10-09T09:44:40.248Z,68.67
2017-10-09T09:45:40.252Z,66.85
2017-10-09T09:46:40.254Z,65.14
2017-10-09T09:47:40.256Z,64.47
2017-10-09T09:48:40.259Z,65.84
2017-10-09T09:49:40.263Z,66.13
2017-10-09T09:50:40.266Z,67.18
2017-10-09T09:51:40.268Z,65.84
2017-10-09T09:52:40.270Z,64.59
2017-10-09T09:53:40.275Z,64.12
2017-10-09T09:54:40.277Z,64.78
2017-10-09T09:55:40.280Z,63.67
2017-10-09T09:56:40.284Z,63.96
2017-10-09T09:57:40.288Z,64.34
2017-10-09T09:58:40.291Z,64.05
2017-10-09T09:59:40.293Z,63.00
2017-10-09T10:00:40.297Z,62.71
2017-10-09T10:01:40.300Z,62.71
2017-10-09T10:02:40.304Z,63.19
2017-10-09T10:03:40.307Z,63.00
2017-10-09T10:04:40.313Z,62.43
2017-10-09T10:05:40.315Z,62.27
2017-10-09T10:06:40.318Z,62.17
2017-10-09T10:07:40.322Z,62.46
2017-10-09T10:08:40.326Z,61.31
2017-10-09T10:09:40.344Z,60.93
2017-10-09T10:10:40.335Z,61.41
2017-10-09T10:11:40.337Z,62.40
2017-10-09T10:12:40.342Z,60.00
2017-10-09T10:13:40.346Z,58.79
2017-10-09T10:14:40.353Z,58.59
2017-10-09T10:15:40.354Z,59.17
2017-10-09T10:16:40.358Z,60.22
2017-10-09T10:17:40.364Z,60.03
2017-10-09T10:18:40.369Z,60.00
2017-10-09T10:19:40.371Z,60.77
2017-10-09T10:20:40.377Z,62.11
2017-10-09T10:21:40.381Z,62.84
2017-10-09T10:22:40.385Z,61.12
2017-10-09T10:23:40.389Z,62.46
2017-10-09T10:24:40.396Z,62.94
2017-10-09T10:25:40.399Z,63.39
2017-10-09T10:26:40.405Z,63.39
2017-10-09T10:27:40.407Z,62.90
2017-10-09T10:28:40.413Z,64.25
2017-10-09T10:29:40.416Z,64.69
2017-10-09T10:30:40.420Z,66.03
2017-10-09T10:31:40.425Z,65.84
2017-10-09T10:32:40.430Z,65.93
2017-10-09T10:33:40.434Z,65.80
2017-10-09T10:34:40.438Z,66.00
2017-10-09T10:35:40.442Z,67.71
2017-10-09T10:36:40.446Z,68.76
2017-10-09T10:37:40.452Z,68.10
2017-10-09T10:38:40.454Z,67.62
2017-10-09T10:39:40.457Z,69.24
2017-10-09T10:40:40.464Z,67.91
2017-10-09T10:41:40.465Z,67.14
2017-10-09T10:42:40.468Z,67.33
2017-10-09T10:43:40.473Z,68.57
2017-10-09T10:44:40.474Z,66.76
2017-10-09T10:45:40.477Z,67.71
2017-10-09T10:46:40.481Z,68.04
2017-10-09T10:47:40.484Z,66.79
2017-10-09T10:48:40.489Z,65.84
2017-10-09T10:49:40.491Z,65.36
2017-10-09T10:50:40.495Z,65.17
2017-10-09T10:51:40.498Z,64.53
2017-10-09T10:52:40.502Z,65.01
2017-10-09T10:53:40.507Z,64.53
2017-10-09T10:54:40.511Z,62.90
2017-10-09T10:55:40.518Z,62.90
2017-10-09T10:56:40.519Z,62.33
2017-10-09T10:57:40.522Z,62.84
2017-10-09T10:58:40.527Z,62.94
2017-10-09T10:59:40.533Z,62.08
2017-10-09T11:00:40.533Z,63.10
2017-10-09T11:01:40.537Z,62.62
2017-10-09T11:02:40.543Z,63.10
2017-10-09T11:03:40.545Z,63.29
2017-10-09T11:04:40.550Z,61.79
2017-10-09T11:05:40.556Z,60.74
2017-10-09T11:06:40.560Z,61.02
2017-10-09T11:07:40.563Z,61.41
2017-10-09T11:08:40.569Z,63.03
2017-10-09T11:09:40.571Z,64.47
2017-10-09T11:10:40.577Z,63.13
2017-10-09T11:11:40.579Z,62.17
2017-10-09T11:12:40.584Z,61.12
2017-10-09T11:13:40.590Z,60.83
2017-10-09T11:14:40.594Z,62.17
2017-10-09T11:15:40.596Z,62.46
2017-10-09T11:16:40.603Z,61.02
2017-10-09T11:17:40.608Z,59.97
2017-10-09T11:18:40.613Z,60.64
2017-10-09T11:19:40.615Z,61.12
2017-10-09T11:20:40.622Z,62.55
2017-10-09T11:21:40.625Z,60.93
2017-10-09T11:22:40.629Z,61.31
2017-10-09T11:23:40.633Z,60.16
2017-10-09T11:24:40.638Z,61.38
2017-10-09T11:25:40.643Z,62.62
2017-10-09T11:26:40.649Z,62.81
2017-10-09T11:27:40.651Z,62.40
2017-10-09T11:28:40.656Z,62.78
2017-10-09T11:29:40.659Z,64.02
2017-10-09T11:30:40.665Z,64.78
2017-10-09T11:31:40.667Z,66.41
2017-10-09T11:32:40.672Z,66.13
2017-10-09T11:33:40.676Z,65.64
2017-10-09T11:34:40.681Z,63.83
2017-10-09T11:35:40.682Z,64.40
2017-10-09T11:36:40.688Z,62.81
2017-10-09T11:37:40.693Z,62.59
2017-10-09T11:38:40.696Z,62.71
2017-10-09T11:39:40.700Z,61.76
2017-10-09T11:40:40.704Z,62.24
2017-10-09T11:41:40.709Z,62.43
2017-10-09T11:42:40.713Z,60.71
2017-10-09T11:43:40.714Z,61.38
2017-10-09T11:44:40.720Z,61.76
2017-10-09T11:45:40.723Z,61.19
2017-10-09T11:46:40.728Z,60.93
2017-10-09T11:47:40.731Z,60.93
2017-10-09T11:48:40.734Z,60.26
2017-10-09T11:49:40.739Z,60.04
2017-10-09T11:50:40.745Z,61.79
2017-10-09T11:51:40.751Z,60.74
2017-10-09T11:52:40.754Z,61.22
2017-10-09T11:53:40.755Z,63.13
2017-10-09T11:54:40.759Z,60.83
2017-10-09T11:55:40.764Z,60.83
2017-10-09T11:56:40.768Z,62.27
2017-10-09T11:57:40.772Z,60.93
2017-10-09T11:58:40.776Z,60.16
2017-10-09T11:59:40.781Z,60.26
2017-10-09T12:00:40.784Z,62.08
2017-10-09T12:01:40.789Z,61.41
2017-10-09T12:02:40.794Z,61.98
2017-10-09T12:03:40.797Z,61.02
2017-10-09T12:04:40.801Z,60.93
2017-10-09T12:05:40.806Z,61.02
2017-10-09T12:06:40.810Z,60.16
2017-10-09T12:07:40.815Z,60.06
2017-10-09T12:08:40.818Z,60.26
2017-10-09T12:09:40.822Z,60.64
2017-10-09T12:10:40.827Z,60.06
2017-10-09T12:11:40.830Z,57.42
2017-10-09T12:12:40.836Z,56.27
2017-10-09T12:13:40.839Z,54.93
2017-10-09T12:14:40.844Z,55.02
2017-10-09T12:15:40.849Z,54.93
2017-10-09T12:16:40.852Z,53.97
2017-10-09T12:17:40.857Z,55.41
2017-10-09T12:18:40.862Z,54.74
2017-10-09T12:19:40.866Z,54.26
2017-10-09T12:20:40.871Z,54.93
2017-10-09T12:21:40.883Z,55.76
2017-10-09T12:22:40.883Z,57.97
2017-10-09T12:23:40.883Z,56.72
2017-10-09T12:24:40.888Z,56.62
2017-10-09T12:25:40.895Z,56.43
2017-10-09T12:26:40.898Z,56.15
2017-10-09T12:27:40.901Z,56.34
2017-10-09T12:28:40.908Z,57.68
2017-10-09T12:29:40.912Z,58.15
2017-10-09T12:30:40.915Z,60.90
2017-10-09T12:31:40.930Z,59.66
2017-10-09T12:32:40.923Z,59.47
2017-10-09T12:33:40.928Z,60.80
2017-10-09T12:34:40.933Z,60.52
2017-10-09T12:35:40.935Z,59.56
2017-10-09T12:36:40.941Z,59.94
2017-10-09T12:37:40.944Z,58.12
2017-10-09T12:38:40.949Z,57.46
2017-10-09T12:39:40.952Z,58.32
2017-10-09T12:40:40.957Z,57.55
2017-10-09T12:41:40.962Z,56.69
2017-10-09T12:42:40.967Z,56.60
2017-10-09T12:43:40.969Z,57.17
2017-10-09T12:44:40.973Z,56.88
2017-10-09T12:45:41.044Z,55.74
2017-10-09T12:46:40.984Z,59.01
2017-10-09T12:47:40.986Z,58.73
2017-10-09T12:48:40.990Z,57.20
2017-10-09T12:49:40.994Z,56.24
2017-10-09T12:50:41.003Z,56.34
2017-10-09T12:51:41.002Z,56.53
2017-10-09T12:52:41.005Z,55.10